createdAt,value
2018-09-25T00:01:02.628Z,102252.08
2018-09-25T00:03:37.040Z,102257.27
2018-09-25T00:06:11.989Z,102255.26
2018-09-25T00:08:46.392Z,102258.95
2018-09-25T00:11:21.367Z,102258.43
2018-09-25T00:13:55.893Z,102258.89
2018-09-25T00:16:30.308Z,102261.22
2018-09-25T00:19:04.721Z,102266.91
2018-09-25T00:21:39.234Z,102266.11
2018-09-25T00:24:13.836Z,102274.45
2018-09-25T00:26:48.215Z,102278.46
2018-09-25T00:29:23.027Z,102279.93
2018-09-25T00:31:57.442Z,102276.27
2018-09-25T00:34:32.011Z,102276.64
2018-09-25T00:37:06.500Z,102277.84
2018-09-25T00:39:40.912Z,102277.98
2018-09-25T00:42:15.442Z,102272.05
2018-09-25T00:44:49.828Z,102282.83
2018-09-25T00:47:24.349Z,102281.53
2018-09-25T00:49:58.769Z,102277.62
2018-09-25T00:52:32.995Z,102274.09
2018-09-25T00:55:07.617Z,102278.59
2018-09-25T00:57:42.011Z,102289.91
2018-09-25T01:00:16.426Z,102283.36
2018-09-25T01:02:50.949Z,102286.65
2018-09-25T01:05:25.615Z,102283.62
2018-09-25T01:08:00.062Z,102280.09
2018-09-25T01:10:34.372Z,102291.63
2018-09-25T01:13:09.188Z,102288.73
2018-09-25T01:15:43.782Z,102288.49
2018-09-25T01:18:18.471Z,102289.70
2018-09-25T01:20:53.236Z,102286.81
2018-09-25T01:23:27.780Z,102278.05
2018-09-25T01:26:02.274Z,102279.52
2018-09-25T01:28:36.503Z,102282.20
2018-09-25T01:31:11.144Z,102286.33
2018-09-25T01:33:48.339Z,102281.22
2018-09-25T01:36:23.255Z,102289.37
2018-09-25T01:38:57.667Z,102287.17
2018-09-25T01:41:32.073Z,102284.27
2018-09-25T01:44:06.485Z,102281.35
2018-09-25T01:46:41.038Z,102279.53
2018-09-25T01:49:15.523Z,102288.39
2018-09-25T01:51:50.418Z,102283.07
2018-09-25T01:54:24.838Z,102291.33
2018-09-25T01:56:59.988Z,102293.88
2018-09-25T01:59:34.441Z,102290.00
2018-09-25T02:02:08.958Z,102289.72
2018-09-25T02:04:43.375Z,102296.05
2018-09-25T02:07:17.840Z,102298.95
2018-09-25T02:09:52.219Z,102293.15
2018-09-25T02:12:26.627Z,102294.97
2018-09-25T02:15:01.152Z,102292.38
2018-09-25T02:17:38.708Z,102298.81
2018-09-25T02:20:14.182Z,102297.61
2018-09-25T02:22:48.449Z,102290.09
2018-09-25T02:25:24.376Z,102297.23
2018-09-25T02:27:58.879Z,102304.87
2018-09-25T02:30:33.413Z,102303.18
2018-09-25T02:33:07.827Z,102302.70
2018-09-25T02:35:42.259Z,102307.81
2018-09-25T02:38:16.634Z,102313.14
2018-09-25T02:40:51.201Z,102319.92
2018-09-25T02:43:25.793Z,102319.55
2018-09-25T02:46:00.365Z,102312.55
2018-09-25T02:48:34.750Z,102314.37
2018-09-25T02:51:09.306Z,102311.80
2018-09-25T02:53:43.683Z,102313.86
2018-09-25T02:56:18.125Z,102312.67
2018-09-25T02:58:52.487Z,102314.47
2018-09-25T03:01:27.059Z,102306.20
2018-09-25T03:04:01.566Z,102320.52
2018-09-25T03:06:36.103Z,102321.00
2018-09-25T03:09:12.840Z,102315.91
2018-09-25T03:11:47.512Z,102322.36
2018-09-25T03:14:21.824Z,102320.63
2018-09-25T03:16:56.275Z,102312.63
2018-09-25T03:19:30.804Z,102314.94
2018-09-25T03:22:05.945Z,102320.03
2018-09-25T03:24:41.522Z,102325.36
2018-09-25T03:27:16.127Z,102324.52
2018-09-25T03:29:50.467Z,102328.87
2018-09-25T03:32:25.001Z,102337.85
2018-09-25T03:34:59.371Z,102333.48
2018-09-25T03:37:33.790Z,102325.58
2018-09-25T03:40:08.187Z,102329.82
2018-09-25T03:42:42.568Z,102329.00
2018-09-25T03:45:17.117Z,102327.57
2018-09-25T03:47:51.615Z,102323.70
2018-09-25T03:50:26.111Z,102324.27
2018-09-25T03:53:00.655Z,102332.27
2018-09-25T03:55:35.245Z,102329.21
2018-09-25T03:58:09.774Z,102326.76
2018-09-25T04:00:44.182Z,102327.72
2018-09-25T04:03:18.547Z,102337.42
2018-09-25T04:05:52.993Z,102326.75
2018-09-25T04:08:27.346Z,102334.63
2018-09-25T04:11:01.741Z,102335.93
2018-09-25T04:13:36.632Z,102340.90
2018-09-25T04:16:10.879Z,102344.41
2018-09-25T04:18:45.412Z,102352.61
2018-09-25T04:21:19.894Z,102357.58
2018-09-25T04:23:54.279Z,102354.67
2018-09-25T04:26:28.797Z,102355.71
2018-09-25T04:29:03.191Z,102356.13
2018-09-25T04:31:37.596Z,102359.44
2018-09-25T04:34:12.088Z,102361.22
2018-09-25T04:36:46.610Z,102357.75
2018-09-25T04:39:21.901Z,102363.16
2018-09-25T04:41:56.540Z,102357.95
2018-09-25T04:44:30.961Z,102349.67
2018-09-25T04:47:05.387Z,102354.52
2018-09-25T04:49:39.903Z,102363.85
2018-09-25T04:52:14.712Z,102363.00
2018-09-25T04:54:59.803Z,102358.97
2018-09-25T04:57:34.308Z,102351.89
2018-09-25T05:00:08.815Z,102349.63
2018-09-25T05:02:43.411Z,102346.11
2018-09-25T05:05:18.695Z,102346.52
2018-09-25T05:07:53.080Z,102351.09
2018-09-25T05:10:27.536Z,102343.64
2018-09-25T05:13:02.120Z,102348.56
2018-09-25T05:15:36.655Z,102352.81
2018-09-25T05:18:11.220Z,102346.62
2018-09-25T05:20:45.744Z,102351.58
2018-09-25T05:23:20.264Z,102350.57
2018-09-25T05:25:54.680Z,102356.73
2018-09-25T05:28:29.193Z,102362.97
2018-09-25T05:31:03.724Z,102356.81
2018-09-25T05:33:38.172Z,102359.53
2018-09-25T05:36:13.055Z,102371.65
2018-09-25T05:38:47.555Z,102380.73
2018-09-25T05:41:22.087Z,102392.00
2018-09-25T05:43:56.476Z,102388.27
2018-09-25T05:46:31.031Z,102395.05
2018-09-25T05:49:05.449Z,102390.62
2018-09-25T05:51:40.575Z,102388.58
2018-09-25T05:54:15.554Z,102383.67
2018-09-25T05:56:50.059Z,102397.25
2018-09-25T05:59:24.336Z,102398.19
2018-09-25T06:01:58.613Z,102397.34
2018-09-25T06:04:32.841Z,102401.11
2018-09-25T06:07:07.434Z,102395.84
2018-09-25T06:09:41.869Z,102390.30
2018-09-25T06:12:17.219Z,102397.13
2018-09-25T06:14:51.614Z,102396.81
2018-09-25T06:17:26.130Z,102394.95
2018-09-25T06:20:00.516Z,102404.13
2018-09-25T06:22:35.069Z,102401.55
2018-09-25T06:25:09.995Z,102408.91
2018-09-25T06:27:44.387Z,102407.38
2018-09-25T06:30:18.768Z,102413.33
2018-09-25T06:32:53.162Z,102408.00
2018-09-25T06:35:27.729Z,102422.93
2018-09-25T06:38:02.128Z,102426.10
2018-09-25T06:40:36.600Z,102429.94
2018-09-25T06:43:10.965Z,102434.26
2018-09-25T06:45:45.251Z,102429.59
2018-09-25T06:48:19.657Z,102427.07
2018-09-25T06:50:54.237Z,102432.81
2018-09-25T06:53:28.792Z,102438.73
2018-09-25T06:56:03.226Z,102440.80
2018-09-25T06:58:37.743Z,102434.37
2018-09-25T07:01:12.311Z,102436.31
2018-09-25T07:03:46.740Z,102438.83
2018-09-25T07:06:21.364Z,102447.19
2018-09-25T07:08:55.901Z,102445.16
2018-09-25T07:11:30.280Z,102443.77
2018-09-25T07:14:04.608Z,102434.47
2018-09-25T07:16:39.159Z,102439.41
2018-09-25T07:19:14.004Z,102429.97
2018-09-25T07:21:48.572Z,102447.25
2018-09-25T07:24:22.983Z,102446.96
2018-09-25T07:26:57.293Z,102442.98
2018-09-25T07:29:31.807Z,102433.12
2018-09-25T07:32:06.224Z,102449.84
2018-09-25T07:34:40.686Z,102450.44
2018-09-25T07:37:15.306Z,102455.33
2018-09-25T07:39:49.848Z,102457.99
2018-09-25T07:42:24.169Z,102458.77
2018-09-25T07:44:58.427Z,102461.21
2018-09-25T07:47:32.796Z,102462.45
2018-09-25T07:50:07.289Z,102469.28
2018-09-25T07:52:41.798Z,102469.86
2018-09-25T07:55:16.883Z,102467.78
2018-09-25T07:57:51.371Z,102470.38
2018-09-25T08:00:26.827Z,102479.48
2018-09-25T08:03:01.140Z,102485.38
2018-09-25T08:05:35.664Z,102474.91
2018-09-25T08:08:10.154Z,102505.10
2018-09-25T08:10:44.708Z,102507.17
2018-09-25T08:13:19.254Z,102504.87
2018-09-25T08:15:53.639Z,102508.63
2018-09-25T08:18:28.036Z,102506.81
2018-09-25T08:21:02.515Z,102511.02
2018-09-25T08:23:37.011Z,102515.52
2018-09-25T08:26:12.210Z,102532.44
2018-09-25T08:28:46.776Z,102533.21
2018-09-25T08:31:21.231Z,102527.08
2018-09-25T08:33:55.688Z,102536.33
2018-09-25T08:36:30.397Z,102528.25
2018-09-25T08:39:04.804Z,102525.84
2018-09-25T08:41:39.163Z,102533.53
2018-09-25T08:44:13.974Z,102519.53
2018-09-25T08:46:48.431Z,102526.92
2018-09-25T08:49:22.857Z,102529.88
2018-09-25T08:51:57.375Z,102529.73
2018-09-25T08:54:31.791Z,102540.91
2018-09-25T08:57:06.278Z,102538.14
2018-09-25T08:59:40.726Z,102537.75
2018-09-25T09:02:15.180Z,102542.06
2018-09-25T09:04:49.623Z,102539.95
2018-09-25T09:07:23.995Z,102540.06
2018-09-25T09:09:58.391Z,102542.88
2018-09-25T09:12:32.803Z,102542.36
2018-09-25T09:15:07.297Z,102537.27
2018-09-25T09:17:41.749Z,102540.17
2018-09-25T09:20:16.734Z,102543.68
2018-09-25T09:22:51.062Z,102544.37
2018-09-25T09:25:25.490Z,102533.61
2018-09-25T09:27:59.758Z,102533.38
2018-09-25T09:30:34.115Z,102536.71
2018-09-25T09:33:08.418Z,102528.63
2018-09-25T09:35:42.960Z,102533.31
2018-09-25T09:38:17.337Z,102528.95
2018-09-25T09:40:51.807Z,102534.68
2018-09-25T09:43:26.124Z,102531.42
2018-09-25T09:46:00.699Z,102531.68
2018-09-25T09:48:35.188Z,102533.78
2018-09-25T09:51:09.482Z,102541.46
2018-09-25T09:53:43.739Z,102531.21
2018-09-25T09:56:18.200Z,102531.58
2018-09-25T09:58:52.383Z,102529.58
2018-09-25T10:01:27.962Z,102531.49
2018-09-25T10:04:03.358Z,102529.08
2018-09-25T10:06:38.993Z,102530.44
2018-09-25T10:09:16.257Z,102537.56
2018-09-25T10:11:51.914Z,102538.60
2018-09-25T10:14:27.223Z,102530.70
2018-09-25T10:17:02.569Z,102517.27
2018-09-25T10:19:36.932Z,102519.80
2018-09-25T10:22:11.358Z,102515.72
2018-09-25T10:24:45.875Z,102507.59
2018-09-25T10:27:20.455Z,102508.66
2018-09-25T10:29:54.771Z,102508.39
2018-09-25T10:32:29.416Z,102504.28
2018-09-25T10:35:03.965Z,102501.47
2018-09-25T10:37:38.444Z,102504.43
2018-09-25T10:40:12.807Z,102494.45
2018-09-25T10:42:47.327Z,102494.11
2018-09-25T10:45:21.884Z,102497.49
2018-09-25T10:47:56.399Z,102491.13
2018-09-25T10:50:30.856Z,102491.23
2018-09-25T10:53:05.355Z,102487.59
2018-09-25T10:55:39.798Z,102485.80
2018-09-25T10:58:14.700Z,102485.30
2018-09-25T11:00:49.257Z,102489.89
2018-09-25T11:03:23.631Z,102487.58
2018-09-25T11:05:58.174Z,102479.83
2018-09-25T11:08:32.462Z,102479.25
2018-09-25T11:11:07.102Z,102480.89
2018-09-25T11:13:41.435Z,102477.42
2018-09-25T11:16:15.939Z,102484.64
2018-09-25T11:18:50.433Z,102486.94
2018-09-25T11:21:24.863Z,102480.47
2018-09-25T11:23:59.271Z,102461.17
2018-09-25T11:26:33.659Z,102468.19
2018-09-25T11:29:08.058Z,102467.30
2018-09-25T11:31:42.597Z,102464.47
2018-09-25T11:34:17.163Z,102462.45
2018-09-25T11:36:51.694Z,102464.92
2018-09-25T11:39:26.098Z,102469.66
2018-09-25T11:42:01.490Z,102475.78
2018-09-25T11:44:35.978Z,102475.17
2018-09-25T11:47:10.547Z,102480.19
2018-09-25T11:49:44.761Z,102477.79
2018-09-25T11:52:19.026Z,102475.71
2018-09-25T11:54:53.402Z,102471.72
2018-09-25T11:57:28.041Z,102464.23
2018-09-25T12:00:02.290Z,102458.01
2018-09-25T12:02:36.621Z,102468.09
2018-09-25T12:05:11.040Z,102465.10
2018-09-25T12:07:45.317Z,102465.84
2018-09-25T12:10:19.723Z,102463.28
2018-09-25T12:12:54.216Z,102470.74
2018-09-25T12:15:28.614Z,102467.03
2018-09-25T12:18:03.128Z,102464.05
2018-09-25T12:20:37.656Z,102459.82
2018-09-25T12:23:12.220Z,102459.86
2018-09-25T12:25:46.610Z,102459.73
2018-09-25T12:28:21.112Z,102455.94
2018-09-25T12:30:55.625Z,102454.45
2018-09-25T12:33:30.051Z,102450.16
2018-09-25T12:36:04.402Z,102456.11
2018-09-25T12:38:38.819Z,102453.45
2018-09-25T12:41:13.517Z,102445.34
2018-09-25T12:43:48.024Z,102452.08
2018-09-25T12:46:22.440Z,102451.55
2018-09-25T12:48:56.934Z,102444.17
2018-09-25T12:51:31.362Z,102433.87
2018-09-25T12:54:05.973Z,102428.50
2018-09-25T12:56:40.321Z,102420.03
2018-09-25T12:59:15.231Z,102414.23
2018-09-25T13:01:50.282Z,102415.08
2018-09-25T13:04:24.735Z,102410.34
2018-09-25T13:06:59.109Z,102405.95
2018-09-25T13:09:33.646Z,102407.77
2018-09-25T13:12:07.930Z,102404.57
2018-09-25T13:14:42.331Z,102403.36
2018-09-25T13:17:16.854Z,102409.70
2018-09-25T13:19:51.223Z,102402.81
2018-09-25T13:22:25.642Z,102408.31
2018-09-25T13:25:00.041Z,102410.66
2018-09-25T13:27:35.332Z,102413.56
2018-09-25T13:30:10.745Z,102407.96
2018-09-25T13:32:45.163Z,102414.55
2018-09-25T13:35:19.679Z,102396.16
2018-09-25T13:37:54.207Z,102393.13
2018-09-25T13:40:28.658Z,102397.82
2018-09-25T13:43:03.014Z,102399.86
2018-09-25T13:45:37.534Z,102386.85
2018-09-25T13:48:11.793Z,102385.00
2018-09-25T13:50:46.345Z,102376.56
2018-09-25T13:53:20.863Z,102373.17
2018-09-25T13:55:55.184Z,102381.95
2018-09-25T13:58:29.600Z,102368.27
2018-09-25T14:01:04.202Z,102366.91
2018-09-25T14:03:38.712Z,102364.02
2018-09-25T14:06:13.320Z,102360.62
2018-09-25T14:08:47.703Z,102357.11
2018-09-25T14:11:22.280Z,102355.60
2018-09-25T14:13:56.795Z,102345.96
2018-09-25T14:16:31.192Z,102340.72
2018-09-25T14:19:05.676Z,102323.84
2018-09-25T14:21:40.069Z,102328.41
2018-09-25T14:24:14.677Z,102317.59
2018-09-25T14:26:49.077Z,102314.89
2018-09-25T14:29:23.472Z,102310.33
2018-09-25T14:31:57.747Z,102306.62
2018-09-25T14:34:32.445Z,102320.96
2018-09-25T14:37:07.298Z,102323.84
2018-09-25T14:39:44.727Z,102329.25
2018-09-25T14:42:19.130Z,102320.79
2018-09-25T14:44:53.528Z,102327.39
2018-09-25T14:47:27.778Z,102321.32
2018-09-25T14:50:02.210Z,102314.56
2018-09-25T14:52:36.680Z,102313.05
2018-09-25T14:55:11.225Z,102303.92
2018-09-25T14:57:45.630Z,102298.17
2018-09-25T15:00:20.027Z,102305.95
2018-09-25T15:02:54.523Z,102303.41
2018-09-25T15:05:29.172Z,102308.13
2018-09-25T15:08:03.705Z,102302.70
2018-09-25T15:10:38.121Z,102296.45
2018-09-25T15:15:59.637Z,102298.63
2018-09-25T15:18:34.047Z,102303.74
2018-09-25T15:21:08.695Z,102299.02
2018-09-25T15:23:43.171Z,102291.05
2018-09-25T15:26:17.600Z,102296.30
2018-09-25T15:28:51.934Z,102290.90
2018-09-25T15:31:26.492Z,102294.61
2018-09-25T15:34:00.919Z,102286.64
2018-09-25T15:36:35.483Z,102275.82
2018-09-25T15:39:13.587Z,102281.25
2018-09-25T15:41:48.241Z,102285.84
2018-09-25T15:44:22.632Z,102282.46
2018-09-25T15:46:57.261Z,102290.07
2018-09-25T15:49:31.797Z,102292.30
2018-09-25T15:52:06.359Z,102290.91
2018-09-25T15:54:40.674Z,102286.54
2018-09-25T15:57:15.034Z,102284.66
2018-09-25T15:59:49.494Z,102284.00
2018-09-25T16:02:23.836Z,102281.64
2018-09-25T16:04:58.199Z,102277.25
2018-09-25T16:07:32.714Z,102279.20
2018-09-25T16:10:06.991Z,102274.53
2018-09-25T16:12:41.389Z,102278.38
2018-09-25T16:15:15.946Z,102270.23
2018-09-25T16:17:50.364Z,102273.91
2018-09-25T16:20:24.926Z,102265.81
2018-09-25T16:22:59.479Z,102259.58
2018-09-25T16:25:33.999Z,102267.30
2018-09-25T16:28:08.488Z,102266.83
2018-09-25T16:30:42.913Z,102271.88
2018-09-25T16:33:17.458Z,102279.64
2018-09-25T16:35:51.849Z,102277.41
2018-09-25T16:38:26.262Z,102273.84
2018-09-25T16:41:00.653Z,102280.38
2018-09-25T16:43:35.128Z,102282.05
2018-09-25T16:46:09.551Z,102284.08
2018-09-25T16:48:43.953Z,102283.52
2018-09-25T16:51:19.155Z,102283.69
2018-09-25T16:53:53.721Z,102283.73
2018-09-25T16:56:28.242Z,102281.09
2018-09-25T16:59:02.826Z,102283.19
2018-09-25T17:01:37.391Z,102288.07
2018-09-25T17:04:11.812Z,102288.99
2018-09-25T17:06:46.221Z,102292.69
2018-09-25T17:09:20.875Z,102300.59
2018-09-25T17:11:55.360Z,102304.30
2018-09-25T17:14:29.903Z,102304.54
2018-09-25T17:17:04.422Z,102313.62
2018-09-25T17:19:38.825Z,102320.69
2018-09-25T17:22:13.195Z,102318.34
2018-09-25T17:24:47.704Z,102315.53
2018-09-25T17:27:22.061Z,102317.64
2018-09-25T17:29:56.436Z,102324.78
2018-09-25T17:32:31.009Z,102326.41
2018-09-25T17:35:05.592Z,102330.53
2018-09-25T17:37:39.946Z,102327.89
2018-09-25T17:40:14.734Z,102321.48
2018-09-25T17:42:49.095Z,102320.44
2018-09-25T17:45:23.487Z,102325.88
2018-09-25T17:47:57.805Z,102329.91
2018-09-25T17:50:32.381Z,102327.99
2018-09-25T17:53:07.064Z,102329.03
2018-09-25T17:55:41.515Z,102337.48
2018-09-25T17:58:16.059Z,102337.02
2018-09-25T18:00:50.559Z,102340.36
2018-09-25T18:03:24.920Z,102352.45
2018-09-25T18:05:59.447Z,102357.48
2018-09-25T18:08:34.000Z,102361.11
2018-09-25T18:11:08.419Z,102363.17
2018-09-25T18:13:43.744Z,102359.78
2018-09-25T18:16:18.460Z,102359.80
2018-09-25T18:18:53.118Z,102359.47
2018-09-25T18:21:27.571Z,102359.90
2018-09-25T18:24:01.950Z,102356.22
2018-09-25T18:26:36.874Z,102360.88
2018-09-25T18:29:11.388Z,102358.54
2018-09-25T18:31:45.799Z,102357.81
2018-09-25T18:34:20.761Z,102359.95
2018-09-25T18:36:55.061Z,102361.16
2018-09-25T18:39:29.464Z,102365.42
2018-09-25T18:42:04.865Z,102365.63
2018-09-25T18:44:39.158Z,102369.86
2018-09-25T18:47:14.021Z,102376.31
2018-09-25T18:49:48.229Z,102377.42
2018-09-25T18:52:22.717Z,102379.84
2018-09-25T18:54:57.251Z,102385.22
2018-09-25T18:57:31.675Z,102379.84
2018-09-25T19:00:06.199Z,102379.76
2018-09-25T19:02:40.571Z,102374.69
2018-09-25T19:05:15.736Z,102383.23
2018-09-25T19:07:50.304Z,102385.70
2018-09-25T19:10:24.776Z,102390.93
2018-09-25T19:12:59.135Z,102397.14
2018-09-25T19:15:33.631Z,102395.88
2018-09-25T19:18:08.132Z,102391.36
2018-09-25T19:20:42.672Z,102394.23
2018-09-25T19:23:16.945Z,102399.89
2018-09-25T19:25:51.489Z,102400.15
2018-09-25T19:28:25.925Z,102404.54
2018-09-25T19:31:00.359Z,102400.39
2018-09-25T19:33:34.904Z,102404.77
2018-09-25T19:36:09.720Z,102414.80
2018-09-25T19:38:44.232Z,102414.97
2018-09-25T19:41:19.042Z,102405.80
2018-09-25T19:43:53.435Z,102402.59
2018-09-25T19:46:27.799Z,102378.34
2018-09-25T19:49:02.271Z,102383.36
2018-09-25T19:51:36.687Z,102374.74
2018-09-25T19:54:11.097Z,102374.14
2018-09-25T19:56:45.476Z,102377.25
2018-09-25T19:59:20.101Z,102375.91
2018-09-25T20:01:54.610Z,102377.47
2018-09-25T20:04:29.027Z,102368.75
2018-09-25T20:07:03.284Z,102369.52
2018-09-25T20:09:37.743Z,102377.10
2018-09-25T20:12:12.438Z,102373.85
2018-09-25T20:14:46.934Z,102379.59
2018-09-25T20:17:21.441Z,102375.58
2018-09-25T20:19:55.886Z,102374.23
2018-09-25T20:22:30.436Z,102368.83
2018-09-25T20:25:04.871Z,102373.26
2018-09-25T20:27:39.231Z,102375.12
2018-09-25T20:30:15.168Z,102373.34
2018-09-25T20:32:49.630Z,102381.65
2018-09-25T20:35:23.993Z,102385.89
2018-09-25T20:37:58.364Z,102380.88
2018-09-25T20:40:32.706Z,102372.71
2018-09-25T20:43:07.115Z,102372.77
2018-09-25T20:45:41.574Z,102373.97
2018-09-25T20:48:16.064Z,102376.81
2018-09-25T20:50:50.336Z,102377.23
2018-09-25T20:53:24.738Z,102376.78
2018-09-25T20:55:59.775Z,102377.44
2018-09-25T20:58:34.031Z,102379.00
2018-09-25T21:01:08.555Z,102384.40
2018-09-25T21:03:42.928Z,102372.94
2018-09-25T21:06:17.308Z,102373.92
2018-09-25T21:08:51.707Z,102370.05
2018-09-25T21:11:26.129Z,102367.37
2018-09-25T21:14:00.601Z,102370.52
2018-09-25T21:16:35.026Z,102376.95
2018-09-25T21:19:09.448Z,102378.02
2018-09-25T21:21:46.927Z,102367.77
2018-09-25T21:24:21.948Z,102363.99
2018-09-25T21:26:57.055Z,102367.21
2018-09-25T21:29:31.369Z,102361.14
2018-09-25T21:32:05.763Z,102354.36
2018-09-25T21:34:40.147Z,102351.82
2018-09-25T21:37:14.515Z,102348.94
2018-09-25T21:39:48.884Z,102345.45
2018-09-25T21:42:23.411Z,102345.95
2018-09-25T21:44:57.774Z,102353.75
2018-09-25T21:47:32.155Z,102366.23
2018-09-25T21:50:06.554Z,102366.14
2018-09-25T21:52:40.931Z,102357.53
2018-09-25T21:55:15.626Z,102351.20
2018-09-25T21:57:50.084Z,102345.98
2018-09-25T22:00:24.550Z,102345.89
2018-09-25T22:02:58.907Z,102347.61
2018-09-25T22:05:33.315Z,102344.71
2018-09-25T22:08:07.680Z,102342.76
2018-09-25T22:10:42.200Z,102344.58
2018-09-25T22:13:16.567Z,102348.59
2018-09-25T22:15:51.075Z,102346.27
2018-09-25T22:18:25.455Z,102347.97
2018-09-25T22:20:59.843Z,102351.75
2018-09-25T22:23:34.345Z,102354.54
2018-09-25T22:26:08.870Z,102350.66
2018-09-25T22:28:44.074Z,102354.06
2018-09-25T22:31:18.773Z,102350.32
2018-09-25T22:33:53.002Z,102341.07
2018-09-25T22:36:27.393Z,102340.23
2018-09-25T22:39:01.902Z,102343.88
2018-09-25T22:41:36.157Z,102343.52
2018-09-25T22:44:10.639Z,102341.81
2018-09-25T22:46:45.433Z,102341.09
2018-09-25T22:49:20.232Z,102348.02
2018-09-25T22:51:54.619Z,102347.52
2018-09-25T22:54:29.010Z,102340.25
2018-09-25T22:57:03.555Z,102343.05
2018-09-25T22:59:37.895Z,102338.91
2018-09-25T23:02:12.562Z,102341.08
2018-09-25T23:04:47.010Z,102341.08
2018-09-25T23:07:22.034Z,102348.96
2018-09-25T23:09:56.507Z,102339.63
2018-09-25T23:12:30.886Z,102331.62
2018-09-25T23:15:05.251Z,102338.41
2018-09-25T23:17:39.640Z,102337.08
2018-09-25T23:20:14.913Z,102336.46
2018-09-25T23:22:49.401Z,102331.70
2018-09-25T23:25:24.196Z,102326.13
2018-09-25T23:27:58.711Z,102327.92
2018-09-25T23:30:33.165Z,102332.30
2018-09-25T23:33:07.723Z,102331.56
2018-09-25T23:35:42.235Z,102320.05
2018-09-25T23:38:16.606Z,102315.09
2018-09-25T23:41:24.027Z,102303.30
2018-09-25T23:43:58.327Z,102308.40
2018-09-25T23:46:34.561Z,102299.69
2018-09-25T23:49:14.102Z,102299.52
2018-09-25T23:51:47.877Z,102294.80
2018-09-25T23:54:21.883Z,102293.36
2018-09-25T23:57:04.871Z,102280.37
2018-09-25T23:59:38.569Z,102280.73
